createdAt,value
2019-06-23T00:01:00.403Z,91.63
2019-06-23T00:03:37.209Z,92.24
2019-06-23T00:06:07.103Z,92.58
2019-06-23T00:08:40.265Z,93.17
2019-06-23T00:11:12.508Z,93.60
2019-06-23T00:13:45.347Z,93.93
2019-06-23T00:16:18.671Z,94.20
2019-06-23T00:18:51.471Z,94.58
2019-06-23T00:21:24.039Z,94.72
2019-06-23T00:23:57.286Z,95.19
2019-06-23T00:26:29.910Z,95.55
2019-06-23T00:29:02.363Z,95.83
2019-06-23T00:31:41.129Z,95.91
2019-06-23T00:34:14.051Z,96.56
2019-06-23T00:36:46.934Z,96.86
2019-06-23T00:39:19.222Z,97.13
2019-06-23T00:41:51.777Z,97.66
2019-06-23T00:44:25.482Z,97.65
2019-06-23T00:46:58.272Z,97.86
2019-06-23T00:49:30.563Z,98.11
2019-06-23T00:52:02.872Z,98.72
2019-06-23T00:54:35.164Z,98.72
2019-06-23T00:57:07.752Z,98.74
2019-06-23T00:59:40.046Z,98.92
2019-06-23T01:02:21.608Z,99.04
2019-06-23T01:04:54.463Z,99.51
2019-06-23T01:07:28.614Z,99.62
2019-06-23T01:10:02.822Z,100.00
2019-06-23T01:12:36.430Z,100.00
2019-06-23T01:15:10.123Z,100.00
2019-06-23T01:17:43.560Z,100.00
2019-06-23T01:20:16.271Z,100.00
2019-06-23T01:22:50.620Z,100.00
2019-06-23T01:25:22.941Z,100.00
2019-06-23T01:27:57.005Z,100.00
2019-06-23T01:30:31.067Z,100.00
2019-06-23T01:33:04.977Z,100.00
2019-06-23T01:35:38.599Z,100.00
2019-06-23T01:38:11.087Z,100.00
2019-06-23T01:40:44.409Z,100.00
2019-06-23T01:43:17.897Z,100.00
2019-06-23T01:45:50.200Z,100.00
2019-06-23T01:48:22.548Z,100.00
2019-06-23T01:50:55.212Z,100.00
2019-06-23T01:53:27.904Z,100.00
2019-06-23T01:56:00.222Z,100.00
2019-06-23T01:58:33.467Z,100.00
2019-06-23T02:01:06.007Z,100.00
2019-06-23T02:03:38.338Z,100.00
2019-06-23T02:06:10.985Z,100.00
2019-06-23T02:08:44.183Z,100.00
2019-06-23T02:11:17.880Z,100.00
2019-06-23T02:13:50.577Z,100.00
2019-06-23T02:16:22.905Z,100.00
2019-06-23T02:18:55.718Z,100.00
2019-06-23T02:21:29.658Z,100.00
2019-06-23T02:24:01.901Z,100.00
2019-06-23T02:26:35.182Z,100.00
2019-06-23T02:29:07.629Z,100.00
2019-06-23T02:31:40.537Z,100.00
2019-06-23T02:34:13.000Z,100.00
2019-06-23T02:36:45.412Z,100.00
2019-06-23T02:39:17.872Z,100.00
2019-06-23T02:41:50.511Z,100.00
2019-06-23T02:44:23.321Z,100.00
2019-06-23T02:47:03.665Z,100.00
2019-06-23T02:49:43.642Z,100.00
2019-06-23T02:52:35.805Z,100.00
2019-06-23T02:55:10.508Z,100.00
2019-06-23T02:58:00.174Z,100.00
2019-06-23T03:00:34.385Z,100.00
2019-06-23T03:03:07.079Z,100.00
2019-06-23T03:05:39.394Z,100.00
2019-06-23T03:08:12.224Z,100.00
2019-06-23T03:10:45.461Z,100.00
2019-06-23T03:13:19.629Z,100.00
2019-06-23T03:15:52.123Z,100.00
2019-06-23T03:18:24.438Z,100.00
2019-06-23T03:20:57.057Z,100.00
2019-06-23T03:23:30.089Z,100.00
2019-06-23T03:26:16.130Z,100.00
2019-06-23T03:28:48.911Z,100.00
2019-06-23T03:31:21.769Z,100.00
2019-06-23T03:33:54.152Z,100.00
2019-06-23T03:36:26.471Z,100.00
2019-06-23T03:38:59.674Z,100.00
2019-06-23T03:41:32.811Z,100.00
2019-06-23T03:44:07.069Z,100.00
2019-06-23T03:46:39.936Z,100.00
2019-06-23T03:49:12.238Z,100.00
2019-06-23T03:51:44.868Z,100.00
2019-06-23T03:54:17.199Z,100.00
2019-06-23T03:56:50.632Z,100.00
2019-06-23T03:59:23.523Z,99.55
2019-06-23T04:01:56.100Z,99.16
2019-06-23T04:04:30.106Z,99.00
2019-06-23T04:07:02.341Z,98.20
2019-06-23T04:09:35.062Z,97.45
2019-06-23T04:12:07.749Z,97.25
2019-06-23T04:14:40.455Z,97.12
2019-06-23T04:17:12.689Z,96.43
2019-06-23T04:19:45.485Z,96.28
2019-06-23T04:22:18.469Z,95.81
2019-06-23T04:24:51.238Z,95.56
2019-06-23T04:27:23.917Z,94.94
2019-06-23T04:29:56.226Z,94.94
2019-06-23T04:32:28.595Z,94.33
2019-06-23T04:35:00.896Z,93.29
2019-06-23T04:37:33.129Z,93.33
2019-06-23T04:40:08.135Z,92.15
2019-06-23T04:42:40.353Z,89.81
2019-06-23T04:45:13.183Z,90.35
2019-06-23T04:47:45.859Z,91.95
2019-06-23T04:50:18.961Z,90.22
2019-06-23T04:52:53.231Z,88.43
2019-06-23T04:55:25.520Z,86.83
2019-06-23T04:57:58.183Z,87.30
2019-06-23T05:00:30.669Z,86.72
2019-06-23T05:03:03.638Z,85.31
2019-06-23T05:05:36.149Z,85.64
2019-06-23T05:08:08.939Z,85.23
2019-06-23T05:10:41.242Z,83.56
2019-06-23T05:13:13.895Z,82.82
2019-06-23T05:15:46.826Z,82.81
2019-06-23T05:18:19.156Z,82.89
2019-06-23T05:20:51.838Z,82.06
2019-06-23T05:23:24.297Z,80.48
2019-06-23T05:25:57.697Z,79.88
2019-06-23T05:28:30.338Z,79.84
2019-06-23T05:31:03.305Z,78.19
2019-06-23T05:33:35.938Z,78.08
2019-06-23T05:36:08.463Z,78.04
2019-06-23T05:38:40.923Z,76.69
2019-06-23T05:41:13.437Z,76.63
2019-06-23T05:43:45.914Z,75.16
2019-06-23T05:46:18.831Z,75.26
2019-06-23T05:48:51.162Z,73.84
2019-06-23T05:51:23.663Z,74.04
2019-06-23T05:53:57.208Z,73.45
2019-06-23T05:56:29.958Z,72.15
2019-06-23T05:59:02.554Z,71.79
2019-06-23T06:01:34.984Z,71.06
2019-06-23T06:04:07.608Z,72.01
2019-06-23T06:06:54.651Z,71.02
2019-06-23T06:09:14.412Z,70.45
2019-06-23T06:11:47.363Z,69.27
2019-06-23T06:14:20.137Z,69.22
2019-06-23T06:16:52.970Z,68.35
2019-06-23T06:19:25.222Z,67.52
2019-06-23T06:21:57.507Z,67.88
2019-06-23T06:24:29.734Z,67.39
2019-06-23T06:27:02.569Z,67.14
2019-06-23T06:29:35.296Z,65.09
2019-06-23T06:32:09.402Z,63.89
2019-06-23T06:34:42.247Z,64.29
2019-06-23T06:37:14.557Z,64.83
2019-06-23T06:39:47.237Z,63.38
2019-06-23T06:42:20.026Z,62.80
2019-06-23T06:44:52.479Z,63.50
2019-06-23T06:47:25.136Z,63.32
2019-06-23T06:49:57.383Z,61.86
2019-06-23T06:52:29.769Z,60.62
2019-06-23T06:55:02.117Z,61.62
2019-06-23T06:57:34.602Z,60.74
2019-06-23T07:00:12.090Z,60.29
2019-06-23T07:02:44.835Z,60.32
2019-06-23T07:05:17.476Z,59.81
2019-06-23T07:07:50.593Z,58.70
2019-06-23T07:10:23.119Z,58.40
2019-06-23T07:12:55.533Z,58.04
2019-06-23T07:15:28.436Z,56.79
2019-06-23T07:18:02.232Z,57.58
2019-06-23T07:20:34.677Z,57.59
2019-06-23T07:23:07.594Z,56.32
2019-06-23T07:25:40.018Z,54.49
2019-06-23T07:28:12.522Z,55.19
2019-06-23T07:31:21.040Z,55.18
2019-06-23T07:33:53.447Z,55.01
2019-06-23T07:36:25.883Z,54.21
2019-06-23T07:38:58.473Z,53.07
2019-06-23T07:41:31.948Z,53.27
2019-06-23T07:44:05.168Z,52.29
2019-06-23T07:46:37.494Z,51.53
2019-06-23T07:49:11.691Z,51.20
2019-06-23T07:51:44.916Z,52.04
2019-06-23T07:54:17.630Z,51.11
2019-06-23T07:56:49.910Z,51.05
2019-06-23T07:59:22.409Z,51.77
2019-06-23T08:01:54.635Z,50.48
2019-06-23T08:04:28.561Z,50.10
2019-06-23T08:07:00.788Z,49.55
2019-06-23T08:09:33.919Z,49.55
2019-06-23T08:12:06.652Z,47.42
2019-06-23T08:14:39.117Z,48.19
2019-06-23T08:17:11.776Z,48.10
2019-06-23T08:19:45.963Z,46.12
2019-06-23T08:22:18.544Z,46.19
2019-06-23T08:24:52.395Z,45.63
2019-06-23T08:27:25.430Z,44.47
2019-06-23T08:29:58.230Z,45.63
2019-06-23T08:32:30.449Z,44.71
2019-06-23T08:35:02.766Z,44.51
2019-06-23T08:37:35.130Z,44.12
2019-06-23T08:40:08.439Z,43.85
2019-06-23T08:42:41.271Z,42.67
2019-06-23T08:45:13.756Z,42.77
2019-06-23T08:47:46.274Z,43.57
2019-06-23T08:50:19.293Z,41.29
2019-06-23T08:52:52.033Z,42.03
2019-06-23T08:55:24.377Z,40.68
2019-06-23T08:57:57.182Z,40.15
2019-06-23T09:00:29.600Z,39.75
2019-06-23T09:03:02.642Z,40.10
2019-06-23T09:05:35.133Z,40.26
2019-06-23T09:08:09.747Z,39.94
2019-06-23T09:10:42.832Z,41.47
2019-06-23T09:13:15.661Z,40.15
2019-06-23T09:15:47.961Z,40.00
2019-06-23T09:18:20.398Z,40.04
2019-06-23T09:20:53.476Z,40.63
2019-06-23T09:23:26.558Z,39.30
2019-06-23T09:25:58.880Z,39.42
2019-06-23T09:28:31.494Z,38.46
2019-06-23T09:31:04.186Z,36.98
2019-06-23T09:33:37.040Z,36.94
2019-06-23T09:36:09.921Z,36.16
2019-06-23T09:38:47.844Z,37.45
2019-06-23T09:41:16.625Z,36.60
2019-06-23T09:43:49.046Z,34.55
2019-06-23T09:46:21.877Z,35.66
2019-06-23T09:48:54.652Z,36.29
2019-06-23T09:51:27.179Z,35.53
2019-06-23T09:53:59.742Z,36.10
2019-06-23T09:56:32.804Z,38.03
2019-06-23T09:59:05.477Z,38.23
2019-06-23T10:01:37.878Z,36.51
2019-06-23T10:04:10.334Z,36.69
2019-06-23T10:06:42.682Z,36.17
2019-06-23T10:09:15.044Z,35.92
2019-06-23T10:11:47.744Z,35.92
2019-06-23T10:14:20.627Z,34.09
2019-06-23T10:16:53.027Z,34.92
2019-06-23T10:19:25.452Z,33.99
2019-06-23T10:21:59.085Z,32.11
2019-06-23T10:24:31.304Z,32.11
2019-06-23T10:27:04.024Z,33.83
2019-06-23T10:29:37.022Z,35.09
2019-06-23T10:32:09.804Z,34.33
2019-06-23T10:34:42.176Z,32.25
2019-06-23T10:37:14.944Z,32.25
2019-06-23T10:39:48.039Z,31.09
2019-06-23T10:42:20.874Z,30.16
2019-06-23T10:44:53.755Z,29.95
2019-06-23T10:47:26.998Z,28.45
2019-06-23T10:50:00.090Z,29.61
2019-06-23T10:52:32.699Z,27.93
2019-06-23T10:55:10.702Z,28.13
2019-06-23T10:57:43.432Z,29.53
2019-06-23T11:00:18.246Z,29.37
2019-06-23T11:02:51.364Z,29.62
2019-06-23T11:05:24.143Z,26.98
2019-06-23T11:07:57.147Z,27.01
2019-06-23T11:10:29.471Z,27.98
2019-06-23T11:13:02.405Z,28.70
2019-06-23T11:15:35.081Z,27.94
2019-06-23T11:18:09.002Z,28.75
2019-06-23T11:20:41.638Z,27.23
2019-06-23T11:23:14.635Z,27.12
2019-06-23T11:25:47.279Z,28.84
2019-06-23T11:28:20.100Z,26.03
2019-06-23T11:30:53.086Z,26.25
2019-06-23T11:33:26.074Z,26.88
2019-06-23T11:35:58.862Z,25.87
2019-06-23T11:38:31.638Z,26.54
2019-06-23T11:41:04.528Z,28.81
2019-06-23T11:43:39.485Z,28.52
2019-06-23T11:46:12.395Z,28.68
2019-06-23T11:48:45.173Z,29.16
2019-06-23T11:51:17.798Z,28.27
2019-06-23T11:53:50.492Z,28.54
2019-06-23T11:56:22.722Z,28.19
2019-06-23T11:58:55.427Z,27.82
2019-06-23T12:01:27.935Z,26.32
2019-06-23T12:04:00.387Z,26.36
2019-06-23T12:06:32.963Z,26.69
2019-06-23T12:09:07.173Z,26.09
2019-06-23T12:11:39.704Z,25.74
2019-06-23T12:14:12.624Z,26.45
2019-06-23T12:16:45.063Z,26.80
2019-06-23T12:19:17.783Z,26.63
2019-06-23T12:21:50.570Z,26.33
2019-06-23T12:24:24.519Z,24.92
2019-06-23T12:26:57.565Z,25.48
2019-06-23T12:29:30.078Z,26.38
2019-06-23T12:32:02.828Z,25.11
2019-06-23T12:34:35.424Z,26.90
2019-06-23T12:37:08.008Z,26.25
2019-06-23T12:39:40.416Z,26.08
2019-06-23T12:42:13.026Z,25.10
2019-06-23T12:44:45.704Z,26.35
2019-06-23T12:47:18.016Z,26.35
2019-06-23T12:49:50.317Z,26.16
2019-06-23T12:52:22.562Z,24.96
2019-06-23T12:54:55.361Z,24.72
2019-06-23T12:57:27.974Z,25.26
2019-06-23T13:00:00.669Z,24.81
2019-06-23T13:02:32.897Z,24.48
2019-06-23T13:05:06.301Z,23.94
2019-06-23T13:07:38.584Z,23.57
2019-06-23T13:10:12.100Z,24.02
2019-06-23T13:12:44.414Z,23.17
2019-06-23T13:15:17.009Z,23.88
2019-06-23T13:17:49.314Z,23.33
2019-06-23T13:20:22.000Z,22.76
2019-06-23T13:22:55.190Z,24.41
2019-06-23T13:25:28.267Z,24.92
2019-06-23T13:28:00.562Z,24.96
2019-06-23T13:30:33.539Z,25.23
2019-06-23T13:33:05.765Z,25.11
2019-06-23T13:35:38.302Z,25.08
2019-06-23T13:38:10.543Z,23.93
2019-06-23T13:40:55.773Z,24.82
2019-06-23T13:43:17.755Z,23.63
2019-06-23T13:45:50.052Z,22.90
2019-06-23T13:48:22.707Z,24.47
2019-06-23T13:50:54.994Z,23.61
2019-06-23T13:53:27.759Z,24.19
2019-06-23T13:56:00.058Z,24.36
2019-06-23T13:58:32.320Z,24.38
2019-06-23T14:01:05.472Z,23.18
2019-06-23T14:03:37.770Z,22.92
2019-06-23T14:06:10.527Z,23.12
2019-06-23T14:08:43.209Z,22.03
2019-06-23T14:11:16.186Z,22.97
2019-06-23T14:13:48.750Z,23.14
2019-06-23T14:16:21.385Z,22.94
2019-06-23T14:18:53.832Z,22.07
2019-06-23T14:21:26.212Z,20.89
2019-06-23T14:23:58.881Z,21.99
2019-06-23T14:26:31.863Z,22.26
2019-06-23T14:29:04.600Z,22.83
2019-06-23T14:31:36.898Z,22.22
2019-06-23T14:34:09.137Z,23.97
2019-06-23T14:36:41.866Z,22.81
2019-06-23T14:39:14.432Z,23.39
2019-06-23T14:41:47.111Z,23.08
2019-06-23T14:44:20.091Z,24.00
2019-06-23T14:46:52.597Z,24.41
2019-06-23T14:49:25.153Z,23.60
2019-06-23T14:51:57.749Z,24.06
2019-06-23T14:54:30.283Z,24.07
2019-06-23T14:57:02.590Z,23.32
2019-06-23T14:59:35.308Z,23.32
2019-06-23T15:02:08.204Z,23.17
2019-06-23T15:04:40.819Z,24.67
2019-06-23T15:07:13.109Z,23.60
2019-06-23T15:09:45.600Z,24.42
2019-06-23T15:12:17.902Z,24.21
2019-06-23T15:14:50.724Z,25.12
2019-06-23T15:17:23.410Z,26.00
2019-06-23T15:19:56.087Z,25.15
2019-06-23T15:22:28.396Z,24.23
2019-06-23T15:25:01.235Z,24.42
2019-06-23T15:27:33.861Z,24.18
2019-06-23T15:30:08.637Z,23.70
2019-06-23T15:32:40.936Z,24.34
2019-06-23T15:35:13.176Z,23.93
2019-06-23T15:37:45.863Z,23.46
2019-06-23T15:40:18.407Z,24.50
2019-06-23T15:42:51.192Z,24.27
2019-06-23T15:45:24.914Z,24.50
2019-06-23T15:47:57.530Z,23.87
2019-06-23T15:50:30.007Z,23.29
2019-06-23T15:53:02.327Z,22.46
2019-06-23T15:55:34.568Z,21.72
2019-06-23T15:58:07.808Z,21.39
2019-06-23T16:00:40.064Z,20.26
2019-06-23T16:03:13.980Z,21.75
2019-06-23T16:05:46.520Z,21.50
2019-06-23T16:08:19.248Z,21.20
2019-06-23T16:10:51.745Z,20.77
2019-06-23T16:13:24.121Z,20.82
2019-06-23T16:15:56.418Z,20.39
2019-06-23T16:18:29.132Z,21.21
2019-06-23T16:21:01.377Z,21.73
2019-06-23T16:23:34.407Z,20.67
2019-06-23T16:26:07.579Z,19.95
2019-06-23T16:28:40.393Z,20.23
2019-06-23T16:31:13.155Z,21.04
2019-06-23T16:33:45.453Z,20.97
2019-06-23T16:36:17.697Z,20.41
2019-06-23T16:38:50.365Z,21.12
2019-06-23T16:41:22.592Z,20.53
2019-06-23T16:43:56.731Z,20.44
2019-06-23T16:46:28.985Z,20.23
2019-06-23T16:49:01.377Z,20.48
2019-06-23T16:51:33.610Z,21.42
2019-06-23T16:54:06.341Z,21.18
2019-06-23T16:56:39.333Z,21.01
2019-06-23T16:59:11.747Z,20.91
2019-06-23T17:01:44.443Z,20.46
2019-06-23T17:04:17.213Z,20.89
2019-06-23T17:06:49.546Z,21.78
2019-06-23T17:09:22.320Z,21.79
2019-06-23T17:11:54.910Z,21.79
2019-06-23T17:14:27.505Z,21.96
2019-06-23T17:17:00.056Z,21.78
2019-06-23T17:19:33.413Z,22.18
2019-06-23T17:22:06.130Z,22.49
2019-06-23T17:24:38.681Z,22.38
2019-06-23T17:27:10.945Z,23.46
2019-06-23T17:29:44.264Z,24.67
2019-06-23T17:32:16.730Z,25.69
2019-06-23T17:34:49.134Z,27.45
2019-06-23T17:37:22.093Z,26.96
2019-06-23T17:39:54.600Z,25.75
2019-06-23T17:42:26.844Z,25.71
2019-06-23T17:44:59.137Z,26.05
2019-06-23T17:47:31.403Z,25.46
2019-06-23T17:50:06.901Z,26.91
2019-06-23T17:52:39.714Z,28.85
2019-06-23T17:55:13.108Z,28.27
2019-06-23T17:57:45.447Z,28.93
2019-06-23T18:00:19.586Z,30.64
2019-06-23T18:02:53.266Z,32.47
2019-06-23T18:05:25.513Z,32.70
2019-06-23T18:07:58.402Z,33.30
2019-06-23T18:10:31.084Z,33.98
2019-06-23T18:13:03.554Z,34.41
2019-06-23T18:15:36.234Z,35.30
2019-06-23T18:18:08.518Z,35.10
2019-06-23T18:20:43.303Z,35.33
2019-06-23T18:23:16.536Z,35.31
2019-06-23T18:25:49.244Z,35.73
2019-06-23T18:28:23.119Z,36.38
2019-06-23T18:30:55.360Z,36.53
2019-06-23T18:33:28.123Z,35.46
2019-06-23T18:36:00.361Z,36.02
2019-06-23T18:38:33.351Z,36.92
2019-06-23T18:41:05.688Z,37.58
2019-06-23T18:43:41.091Z,37.98
2019-06-23T18:46:12.346Z,38.04
2019-06-23T18:48:44.634Z,38.32
2019-06-23T18:51:18.463Z,38.80
2019-06-23T18:53:50.850Z,40.12
2019-06-23T18:56:23.093Z,40.01
2019-06-23T18:58:56.240Z,40.67
2019-06-23T19:01:28.883Z,40.68
2019-06-23T19:04:01.175Z,41.26
2019-06-23T19:06:33.716Z,41.52
2019-06-23T19:11:39.758Z,42.31
2019-06-23T19:14:12.347Z,43.65
2019-06-23T19:16:45.159Z,44.38
2019-06-23T19:19:17.423Z,44.60
2019-06-23T19:21:50.099Z,45.88
2019-06-23T19:24:22.788Z,46.76
2019-06-23T19:26:55.562Z,46.83
2019-06-23T19:29:27.829Z,47.67
2019-06-23T19:32:00.264Z,48.35
2019-06-23T19:34:33.094Z,48.29
2019-06-23T19:37:05.619Z,49.93
2019-06-23T19:39:38.446Z,49.31
2019-06-23T19:42:11.500Z,49.59
2019-06-23T19:44:43.982Z,50.08
2019-06-23T19:47:16.315Z,52.03
2019-06-23T19:49:48.787Z,53.26
2019-06-23T19:52:21.539Z,54.25
2019-06-23T19:54:54.529Z,54.93
2019-06-23T19:57:27.967Z,54.58
2019-06-23T20:00:00.708Z,55.87
2019-06-23T20:02:32.945Z,56.80
2019-06-23T20:05:08.965Z,57.81
2019-06-23T20:07:41.423Z,58.81
2019-06-23T20:10:15.630Z,60.04
2019-06-23T20:12:48.301Z,60.11
2019-06-23T20:15:27.859Z,60.95
2019-06-23T20:17:54.986Z,61.38
2019-06-23T20:20:27.774Z,62.00
2019-06-23T20:22:59.994Z,62.85
2019-06-23T20:25:32.373Z,62.38
2019-06-23T20:28:04.610Z,64.45
2019-06-23T20:30:37.264Z,64.76
2019-06-23T20:33:09.803Z,63.13
2019-06-23T20:35:42.675Z,64.24
2019-06-23T20:38:15.151Z,65.30
2019-06-23T20:40:47.510Z,66.69
2019-06-23T20:43:20.341Z,65.33
2019-06-23T20:45:52.908Z,65.47
2019-06-23T20:48:25.240Z,65.57
2019-06-23T20:50:58.200Z,63.42
2019-06-23T20:53:31.066Z,61.81
2019-06-23T20:56:03.890Z,59.88
2019-06-23T20:58:36.329Z,59.52
2019-06-23T21:01:09.436Z,58.73
2019-06-23T21:03:42.201Z,58.66
2019-06-23T21:06:23.383Z,58.48
2019-06-23T21:08:49.425Z,58.97
2019-06-23T21:11:21.901Z,59.67
2019-06-23T21:13:54.139Z,59.96
2019-06-23T21:16:27.086Z,60.89
2019-06-23T21:18:59.537Z,64.19
2019-06-23T21:21:32.386Z,64.08
2019-06-23T21:24:06.774Z,64.77
2019-06-23T21:26:39.579Z,66.39
2019-06-23T21:29:12.343Z,65.49
2019-06-23T21:31:45.254Z,64.79
2019-06-23T21:34:18.239Z,61.93
2019-06-23T21:36:51.215Z,59.74
2019-06-23T21:39:23.739Z,58.81
2019-06-23T21:41:56.210Z,58.14
2019-06-23T21:44:28.952Z,58.16
2019-06-23T21:47:02.013Z,58.04
2019-06-23T21:49:34.664Z,57.96
2019-06-23T21:52:07.765Z,58.00
2019-06-23T21:54:40.109Z,58.54
2019-06-23T21:57:12.822Z,58.42
2019-06-23T21:59:45.156Z,58.67
2019-06-23T22:02:17.929Z,58.61
2019-06-23T22:04:50.710Z,58.56
2019-06-23T22:07:23.676Z,58.90
2019-06-23T22:09:56.206Z,59.22
2019-06-23T22:12:29.894Z,59.97
2019-06-23T22:15:02.688Z,59.17
2019-06-23T22:17:35.257Z,59.63
2019-06-23T22:20:08.290Z,59.81
2019-06-23T22:22:41.163Z,60.69
2019-06-23T22:25:14.003Z,60.57
2019-06-23T22:27:46.560Z,60.46
2019-06-23T22:30:19.489Z,60.54
2019-06-23T22:32:51.880Z,61.25
2019-06-23T22:35:24.596Z,61.69
2019-06-23T22:37:57.262Z,62.72
2019-06-23T22:40:30.050Z,62.64
2019-06-23T22:43:03.227Z,62.44
2019-06-23T22:45:47.080Z,62.25
2019-06-23T22:48:09.876Z,62.37
2019-06-23T22:50:43.513Z,62.44
2019-06-23T22:53:15.887Z,62.68
2019-06-23T22:55:48.882Z,63.30
2019-06-23T22:58:21.683Z,63.67
2019-06-23T23:00:54.402Z,63.70
2019-06-23T23:03:26.770Z,63.84
2019-06-23T23:05:59.611Z,64.02
2019-06-23T23:08:32.234Z,64.62
2019-06-23T23:11:04.472Z,64.95
2019-06-23T23:13:37.080Z,65.86
2019-06-23T23:16:10.120Z,66.75
2019-06-23T23:18:42.490Z,67.22
2019-06-23T23:21:15.170Z,67.50
2019-06-23T23:23:48.157Z,68.69
2019-06-23T23:26:21.170Z,69.35
2019-06-23T23:28:53.816Z,69.81
2019-06-23T23:31:26.662Z,70.58
2019-06-23T23:33:59.696Z,71.07
2019-06-23T23:36:32.032Z,71.96
2019-06-23T23:39:05.412Z,72.43
2019-06-23T23:41:38.346Z,72.61
2019-06-23T23:44:10.623Z,72.99
2019-06-23T23:46:43.760Z,73.34
2019-06-23T23:49:16.035Z,73.89
2019-06-23T23:51:48.656Z,74.48
2019-06-23T23:54:20.935Z,74.92
2019-06-23T23:56:53.179Z,75.88
2019-06-23T23:59:25.870Z,76.46
